Map

Track Data

SID SEASON NUMBER BASIN SUBBASIN NAME ISO_TIME NATURE LAT LON WMO_WIND WMO_PRES WMO_AGENCY TRACK_TYPE DIST2LAND LANDFALL IFLAG USA_AGENCY USA_ATCF_ID USA_LAT USA_LON USA_RECORD USA_STATUS USA_WIND USA_PRES USA_SSHS USA_R34_NE USA_R34_SE USA_R34_SW USA_R34_NW USA_R50_NE USA_R50_SE USA_R50_SW USA_R50_NW USA_R64_NE USA_R64_SE USA_R64_SW USA_R64_NW USA_POCI USA_ROCI USA_RMW USA_EYE TOKYO_LAT TOKYO_LON TOKYO_GRADE TOKYO_WIND TOKYO_PRES TOKYO_R50_DIR TOKYO_R50_LONG TOKYO_R50_SHORT TOKYO_R30_DIR TOKYO_R30_LONG TOKYO_R30_SHORT TOKYO_LAND CMA_LAT CMA_LON CMA_CAT CMA_WIND CMA_PRES HKO_LAT HKO_LON HKO_CAT HKO_WIND HKO_PRES NEWDELHI_LAT NEWDELHI_LON NEWDELHI_GRADE NEWDELHI_WIND NEWDELHI_PRES NEWDELHI_CI NEWDELHI_DP NEWDELHI_POCI REUNION_LAT REUNION_LON REUNION_TYPE REUNION_WIND REUNION_PRES REUNION_TNUM REUNION_CI REUNION_RMW REUNION_R34_NE REUNION_R34_SE REUNION_R34_SW REUNION_R34_NW REUNION_R50_NE REUNION_R50_SE REUNION_R50_SW REUNION_R50_NW REUNION_R64_NE REUNION_R64_SE REUNION_R64_SW REUNION_R64_NW BOM_LAT BOM_LON BOM_TYPE BOM_WIND BOM_PRES BOM_TNUM BOM_CI BOM_RMW BOM_R34_NE BOM_R34_SE BOM_R34_SW BOM_R34_NW BOM_R50_NE BOM_R50_SE BOM_R50_SW BOM_R50_NW BOM_R64_NE BOM_R64_SE BOM_R64_SW BOM_R64_NW BOM_ROCI BOM_POCI BOM_EYE BOM_POS_METHOD BOM_PRES_METHOD NADI_LAT NADI_LON NADI_CAT NADI_WIND NADI_PRES WELLINGTON_LAT WELLINGTON_LON WELLINGTON_WIND WELLINGTON_PRES DS824_LAT DS824_LON DS824_STAGE DS824_WIND DS824_PRES TD9636_LAT TD9636_LON TD9636_STAGE TD9636_WIND TD9636_PRES TD9635_LAT TD9635_LON TD9635_WIND TD9635_PRES TD9635_ROCI NEUMANN_LAT NEUMANN_LON NEUMANN_CLASS NEUMANN_WIND NEUMANN_PRES MLC_LAT MLC_LON MLC_CLASS MLC_WIND MLC_PRES USA_GUST BOM_GUST BOM_GUST_PER REUNION_GUST REUNION_GUST_PER USA_SEAHGT USA_SEARAD_NE USA_SEARAD_SE USA_SEARAD_SW USA_SEARAD_NW STORM_SPEED STORM_DIR
1950224N15216 1950 57 EP CP HIKI 1950-08-12 00:00:00 TS 14.5000 -144.500 25 hurdat_epa main 1229 1209 O________O____ hurdat_epa CP011950 14.5000 -144.500 TD 25 -1 14.5000 -144.500 TC 25 5 327
1950224N15216 1950 57 EP CP HIKI 1950-08-12 03:00:00 TS 14.7100 -144.640 main 1209 1180 P________P____ CP011950 14.7100 -144.640 TD 25 -1 14.7100 -144.640 TC 25 5 324
1950224N15216 1950 57 EP CP HIKI 1950-08-12 06:00:00 TS 14.9000 -144.800 25 hurdat_epa main 1180 1155 O________O____ hurdat_epa CP011950 14.9000 -144.800 TD 25 -1 14.9000 -144.800 TC 25 5 316
1950224N15216 1950 57 EP CP HIKI 1950-08-12 09:00:00 TS 15.0575 -144.993 main 1150 1126 P________P____ CP011950 15.0575 -144.993 TD 25 -1 15.0575 -144.993 TC 25 5 308
1950224N15216 1950 57 EP CP HIKI 1950-08-12 12:00:00 TS 15.2000 -145.200 25 hurdat_epa main 1126 1102 O________O____ hurdat_epa CP011950 15.2000 -145.200 TD 25 -1 15.2000 -145.200 TC 25 5 306
1950224N15216 1950 57 EP CP HIKI 1950-08-12 15:00:00 TS 15.3575 -145.415 main 1097 1073 P________P____ CP011950 15.3575 -145.415 TD 25 -1 15.3575 -145.415 TC 25 5 308
1950224N15216 1950 57 EP CP HIKI 1950-08-12 18:00:00 TS 15.5000 -145.600 25 hurdat_epa main 1073 1058 O________O____ hurdat_epa CP011950 15.5000 -145.600 TD 25 -1 15.5000 -145.600 TC 25 4 313
1950224N15216 1950 57 EP CP HIKI 1950-08-12 21:00:00 TS 15.6074 -145.693 main 1058 1044 P________P____ CP011950 15.6074 -145.693 TD 25 -1 15.6074 -145.693 TC 25 3 316
1950224N15216 1950 57 EP CP HIKI 1950-08-13 00:00:00 TS 15.7000 -145.800 25 hurdat_epa main 1044 1020 O________O____ hurdat_epa CP011950 15.7000 -145.800 TD 25 -1 15.7000 -145.800 TC 25 4 300
1950224N15216 1950 57 EP CP HIKI 1950-08-13 03:00:00 TS 15.7850 -146.020 main 1020 986 P________P____ CP011950 15.7850 -146.020 TD 35 0 15.7850 -146.020 TC 35 5 293
1950224N15216 1950 57 EP CP HIKI 1950-08-13 06:00:00 TS 15.9000 -146.300 45 hurdat_epa main 986 947 O________O____ hurdat_epa CP011950 15.9000 -146.300 TS 45 0 15.9000 -146.300 TC 45 6 300
1950224N15216 1950 57 EP CP HIKI 1950-08-13 09:00:00 TS 16.0925 -146.585 main 947 909 P________P____ CP011950 16.0925 -146.585 TS 45 0 16.0925 -146.585 TC 45 7 305
1950224N15216 1950 57 EP CP HIKI 1950-08-13 12:00:00 TS 16.3000 -146.900 45 hurdat_epa main 909 870 O________O____ hurdat_epa CP011950 16.3000 -146.900 TS 45 0 16.3000 -146.900 TC 45 7 300
1950224N15216 1950 57 EP CP HIKI 1950-08-13 15:00:00 TS 16.4650 -147.258 main 861 827 P________P____ CP011950 16.4650 -147.258 TS 45 0 16.4650 -147.258 TC 45 7 294
1950224N15216 1950 57 EP CP HIKI 1950-08-13 18:00:00 TS 16.6000 -147.600 45 hurdat_epa main 827 803 O________O____ hurdat_epa CP011950 16.6000 -147.600 TS 45 0 16.6000 -147.600 TC 45 6 291
1950224N15216 1950 57 EP CP HIKI 1950-08-13 21:00:00 TS 16.6697 -147.828 main 803 769 P________P____ CP011950 16.6697 -147.828 TS 45 0 16.6697 -147.828 TC 45 5 293
1950224N15216 1950 57 EP CP HIKI 1950-08-14 00:00:00 TS 16.8000 -148.100 45 hurdat_epa main 769 717 O________O____ hurdat_epa CP011950 16.8000 -148.100 TS 45 0 16.8000 -148.100 TC 45 8 302
1950224N15216 1950 57 EP CP HIKI 1950-08-14 03:00:00 TS 17.1051 -148.562 main 707 641 P________P____ CP011950 17.1051 -148.562 TS 45 0 17.1051 -148.562 TC 45 12 306
1950224N15216 1950 57 EP CP HIKI 1950-08-14 06:00:00 TS 17.5000 -149.100 45 hurdat_epa main 641 576 O________O____ hurdat_epa CP011950 17.5000 -149.100 TS 45 0 17.5000 -149.100 TC 45 12 308
1950224N15216 1950 57 EP CP HIKI 1950-08-14 09:00:00 TS 17.8773 -149.585 main 576 512 P________P____ CP011950 17.8773 -149.585 TS 45 0 17.8773 -149.585 TC 45 12 310
1950224N15216 1950 57 EP CP HIKI 1950-08-14 12:00:00 TS 18.3000 -150.100 45 hurdat_epa main 512 437 O________O____ hurdat_epa CP011950 18.3000 -150.100 TS 45 0 18.3000 -150.100 TC 45 14 311
1950224N15216 1950 57 EP CP HIKI 1950-08-14 15:00:00 TS 18.8000 -150.692 main 437 367 P________P____ CP011950 18.8000 -150.692 TS 45 0 18.8000 -150.692 TC 45 15 311
1950224N15216 1950 57 EP CP HIKI 1950-08-14 18:00:00 TS 19.3000 -151.300 45 hurdat_epa main 367 315 O________O____ hurdat_epa CP011950 19.3000 -151.300 TS 45 0 19.3000 -151.300 TC 45 15 310
1950224N15216 1950 57 EP CP HIKI 1950-08-14 21:00:00 TS 19.7298 -151.865 main 304 259 P________P____ CP011950 19.7298 -151.865 TS 45 0 19.7298 -151.865 TC 45 13 308
1950224N15216 1950 57 EP CP HIKI 1950-08-15 00:00:00 TS 20.1000 -152.400 45 hurdat_epa main 259 222 O________O____ hurdat_epa CP011950 20.1000 -152.400 TS 45 0 20.1000 -152.400 TC 45 12 305
1950224N15216 1950 57 EP CP HIKI 1950-08-15 03:00:00 TS 20.4073 -152.908 main 222 198 P________P____ CP011950 20.4073 -152.908 TS 45 0 20.4073 -152.908 TC 45 11 303
1950224N15216 1950 57 EP CP HIKI 1950-08-15 06:00:00 TS 20.7000 -153.400 45 hurdat_epa main 198 175 O________O____ hurdat_epa CP011950 20.7000 -153.400 TS 45 0 20.7000 -153.400 TC 45 11 304
1950224N15216 1950 57 EP CP HIKI 1950-08-15 09:00:00 TS 21.0272 -153.885 main 175 168 P________P____ CP011950 21.0272 -153.885 TS 45 0 21.0272 -153.885 TC 45 12 307
1950224N15216 1950 57 EP CP HIKI 1950-08-15 12:00:00 TS 21.4000 -154.400 45 hurdat_epa main 177 152 O________O____ hurdat_epa CP011950 21.4000 -154.400 TS 45 0 21.4000 -154.400 TC 45 13 308
1950224N15216 1950 57 EP CP HIKI 1950-08-15 15:00:00 TS 21.8501 -155.000 main 160 154 P________P____ CP011950 21.8501 -155.000 TS 45 0 21.8501 -155.000 TC 45 14 309
1950224N15216 1950 57 EP CP HIKI 1950-08-15 18:00:00 TS 22.3000 -155.600 45 hurdat_epa main 172 170 O________O____ hurdat_epa CP011950 22.3000 -155.600 TS 45 0 22.3000 -155.600 TC 45 13 308
1950224N15216 1950 57 EP CP HIKI 1950-08-15 21:00:00 TS 22.6648 -156.123 main 205 203 P________P____ CP011950 22.6648 -156.123 TS 60 0 22.6648 -156.123 TC 60 12 307
1950224N15216 1950 57 EP CP HIKI 1950-08-16 00:00:00 TS 23.0000 -156.600 75 hurdat_epa main 205 199 O________O____ hurdat_epa CP011950 23.0000 -156.600 HU 75 1 23.0000 -156.600 TC 75 11 309
1950224N15216 1950 57 EP CP HIKI 1950-08-16 03:00:00 TS 23.3573 -157.058 main 217 213 P________P____ CP011950 23.3573 -157.058 HU 75 1 23.3573 -157.058 TC 75 11 310
1950224N15216 1950 57 EP CP HIKI 1950-08-16 06:00:00 TS 23.7000 -157.500 75 hurdat_epa main 238 238 O________O____ hurdat_epa CP011950 23.7000 -157.500 HU 75 1 23.7000 -157.500 TC 75 10 310
1950224N15216 1950 57 EP CP HIKI 1950-08-16 09:00:00 TS 24.0221 -157.928 main 256 250 P________P____ CP011950 24.0221 -157.928 HU 75 1 24.0221 -157.928 TC 75 10 306
1950224N15216 1950 57 EP CP HIKI 1950-08-16 12:00:00 TS 24.3000 -158.400 75 hurdat_epa main 262 259 O________O____ hurdat_epa CP011950 24.3000 -158.400 HU 75 1 24.3000 -158.400 TC 75 11 299
1950224N15216 1950 57 EP CP HIKI 1950-08-16 15:00:00 TS 24.5450 -158.977 main 269 269 P________P____ CP011950 24.5450 -158.977 HU 75 1 24.5450 -158.977 TC 75 12 290
1950224N15216 1950 57 EP CP HIKI 1950-08-16 18:00:00 TS 24.7000 -159.600 75 hurdat_epa main 290 290 O________O____ hurdat_epa CP011950 24.7000 -159.600 HU 75 1 24.7000 -159.600 TC 75 12 280
1950224N15216 1950 57 EP CP HIKI 1950-08-16 21:00:00 TS 24.7451 -160.230 main 295 295 P________P____ CP011950 24.7451 -160.230 HU 75 1 24.7451 -160.230 TC 75 11 270
1950224N15216 1950 57 EP CP HIKI 1950-08-17 00:00:00 TS 24.7000 -160.800 75 hurdat_epa main 311 311 O________O____ hurdat_epa CP011950 24.7000 -160.800 HU 75 1 24.7000 -160.800 TC 75 9 263
1950224N15216 1950 57 EP CP HIKI 1950-08-17 03:00:00 TS 24.6371 -161.230 main 318 318 P________P____ CP011950 24.6371 -161.230 HU 75 1 24.6371 -161.230 TC 75 8 255
1950224N15216 1950 57 EP CP HIKI 1950-08-17 06:00:00 TS 24.5000 -161.600 75 hurdat_epa main 331 328 O________O____ hurdat_epa CP011950 24.5000 -161.600 HU 75 1 24.5000 -161.600 TC 75 8 242
1950224N15216 1950 57 EP CP HIKI 1950-08-17 09:00:00 TS 24.2649 -162.008 main 340 339 P________P____ CP011950 24.2649 -162.008 HU 75 1 24.2649 -162.008 TC 75 9 236
1950224N15216 1950 57 EP CP HIKI 1950-08-17 12:00:00 TS 24.0000 -162.400 75 hurdat_epa main 347 347 O________O____ hurdat_epa CP011950 24.0000 -162.400 HU 75 1 24.0000 -162.400 TC 75 8 235
1950224N15216 1950 57 EP CP HIKI 1950-08-17 15:00:00 TS 23.7849 -162.757 main 367 361 P________P____ CP011950 23.7849 -162.757 HU 75 1 23.7849 -162.757 TC 75 8 238
1950224N15216 1950 57 EP CP HIKI 1950-08-17 18:00:00 TS 23.6000 -163.100 75 hurdat_epa main 382 382 O________O____ hurdat_epa CP011950 23.6000 -163.100 HU 75 1 23.6000 -163.100 TC 75 7 242
1950224N15216 1950 57 EP CP HIKI 1950-08-17 21:00:00 TS 23.4573 -163.435 main 405 405 P________P____ CP011950 23.4573 -163.435 HU 75 1 23.4573 -163.435 TC 75 7 245
1950224N15216 1950 57 EP CP HIKI 1950-08-18 00:00:00 TS 23.3000 -163.800 75 hurdat_epa main 435 435 O________O____ hurdat_epa CP011950 23.3000 -163.800 HU 75 1 23.3000 -163.800 TC 75 8 241
1950224N15216 1950 57 EP CP HIKI 1950-08-18 03:00:00 TS 23.0425 -164.235 main 465 465 P________P____ CP011950 23.0425 -164.235 HU 75 1 23.0425 -164.235 TC 75 10 239
1950224N15216 1950 57 EP CP HIKI 1950-08-18 06:00:00 TS 22.8000 -164.700 75 hurdat_epa main 511 511 O________O____ hurdat_epa CP011950 22.8000 -164.700 HU 75 1 22.8000 -164.700 TC 75 9 246
1950224N15216 1950 57 EP CP HIKI 1950-08-18 09:00:00 TS 22.6699 -165.150 main 550 550 P________P____ CP011950 22.6699 -165.150 HU 75 1 22.6699 -165.150 TC 75 9 256
1950224N15216 1950 57 EP CP HIKI 1950-08-18 12:00:00 TS 22.6000 -165.600 75 hurdat_epa main 600 600 O________O____ hurdat_epa CP011950 22.6000 -165.600 HU 75 1 22.6000 -165.600 TC 75 8 261
1950224N15216 1950 57 EP CP HIKI 1950-08-18 15:00:00 TS 22.5349 -166.050 main 640 640 P________P____ CP011950 22.5349 -166.050 HU 75 1 22.5349 -166.050 TC 75 8 263
1950224N15216 1950 57 EP CP HIKI 1950-08-18 18:00:00 TS 22.5000 -166.500 75 hurdat_epa main 691 691 O________O____ hurdat_epa CP011950 22.5000 -166.500 HU 75 1 22.5000 -166.500 TC 75 8 266
1950224N15216 1950 57 EP CP HIKI 1950-08-18 21:00:00 TS 22.4846 -166.920 main 732 732 P________P____ CP011950 22.4846 -166.920 HU 75 1 22.4846 -166.920 TC 75 8 270
1950224N15216 1950 57 EP CP HIKI 1950-08-19 00:00:00 TS 22.5000 -167.400 75 hurdat_epa main 783 783 O________O____ hurdat_epa CP011950 22.5000 -167.400 HU 75 1 22.5000 -167.400 TC 75 10 273
1950224N15216 1950 57 EP CP HIKI 1950-08-19 03:00:00 TS 22.5428 -168.042 main 845 845 P________P____ CP011950 22.5428 -168.042 HU 75 1 22.5428 -168.042 TC 75 12 275
1950224N15216 1950 57 EP CP HIKI 1950-08-19 06:00:00 TS 22.6000 -168.700 75 hurdat_epa main 917 917 O________O____ hurdat_epa CP011950 22.6000 -168.700 HU 75 1 22.6000 -168.700 TC 75 11 274
1950224N15216 1950 57 EP CP HIKI 1950-08-19 09:00:00 TS 22.6198 -169.245 main 968 968 P________P____ CP011950 22.6198 -169.245 HU 75 1 22.6198 -169.245 TC 75 9 276
1950224N15216 1950 57 EP CP HIKI 1950-08-19 12:00:00 TS 22.7000 -169.700 75 hurdat_epa main 1020 1020 O________O____ hurdat_epa CP011950 22.7000 -169.700 HU 75 1 22.7000 -169.700 TC 75 8 293
1950224N15216 1950 57 EP CP HIKI 1950-08-19 15:00:00 TS 22.9270 -170.043 main 1052 1052 P________P____ CP011950 22.9270 -170.043 HU 60 0 22.9270 -170.043 TC 60 8 308
1950224N15216 1950 57 EP CP HIKI 1950-08-19 18:00:00 TS 23.2000 -170.400 45 hurdat_epa main 1095 1095 O________O____ hurdat_epa CP011950 23.2000 -170.400 TS 45 0 23.2000 -170.400 TC 45 9 300
1950224N15216 1950 57 EP CP HIKI 1950-08-19 21:00:00 TS 23.4002 -170.935 main 1148 1148 P________P____ CP011950 23.4002 -170.935 TS 45 0 23.4002 -170.935 TC 45 11 292
1950224N15216 1950 57 EP CP HIKI 1950-08-20 00:00:00 TS 23.6000 -171.500 45 hurdat_epa main 1211 1211 O________O____ hurdat_epa CP011950 23.6000 -171.500 TS 45 0 23.6000 -171.500 TC 45 10 295
1950224N15216 1950 57 EP CP HIKI 1950-08-20 03:00:00 TS 23.8344 -171.935 main 1254 1254 P________P____ CP011950 23.8344 -171.935 TS 45 0 23.8344 -171.935 TC 45 10 301
1950224N15216 1950 57 EP CP HIKI 1950-08-20 06:00:00 TS 24.1000 -172.400 45 hurdat_epa main 1309 1309 O________O____ hurdat_epa CP011950 24.1000 -172.400 TS 45 0 24.1000 -172.400 TC 45 12 298
1950224N15216 1950 57 EP CP HIKI 1950-08-20 09:00:00 TS 24.3931 -173.072 main 1384 1384 P________P____ CP011950 24.3931 -173.072 TS 45 0 24.3931 -173.072 TC 45 13 297
1950224N15216 1950 57 EP CP HIKI 1950-08-20 12:00:00 TS 24.7000 -173.700 45 hurdat_epa main 1449 1449 O________O____ hurdat_epa CP011950 24.7000 -173.700 TS 45 0 24.7000 -173.700 TC 45 10 306
1950224N15216 1950 57 EP CP HIKI 1950-08-20 15:00:00 TS 24.9915 -173.994 main 1484 1484 P________P____ CP011950 24.9915 -173.994 TS 45 0 24.9915 -173.994 TC 45 8 318
1950224N15216 1950 57 EP CP HIKI 1950-08-20 18:00:00 TS 25.3000 -174.300 45 hurdat_epa main 1520 1520 O________O____ hurdat_epa CP011950 25.3000 -174.300 TS 45 0 25.3000 -174.300 TC 45 11 307
1950224N15216 1950 57 EP CP HIKI 1950-08-20 21:00:00 TS 25.6431 -174.955 main 1595 1595 P________P____ CP011950 25.6431 -174.955 TS 45 0 25.6431 -174.955 TC 45 14 299
1950224N15216 1950 57 EP CP HIKI 1950-08-21 00:00:00 TS 26.0000 -175.700 45 hurdat_epa main 1673 1673 O________O____ hurdat_epa CP011950 26.0000 -175.700 TS 45 0 26.0000 -175.700 TC 45 14 300
1950224N15216 1950 57 EP CP HIKI 1950-08-21 03:00:00 TS 26.3496 -176.323 main 1739 1739 P________P____ CP011950 26.3496 -176.323 TS 45 0 26.3496 -176.323 TC 45 13 303
1950224N15216 1950 57 EP CP HIKI 1950-08-21 06:00:00 TS 26.7000 -176.900 45 hurdat_epa main 1807 1807 O________O____ hurdat_epa CP011950 26.7000 -176.900 TS 45 0 26.7000 -176.900 TC 45 12 305
1950224N15216 1950 57 EP CP HIKI 1950-08-21 09:00:00 TS 27.0505 -177.454 main 1875 1875 P________P____ CP011950 27.0505 -177.454 TS 35 0 27.0505 -177.454 TC 35 12 306
1950224N15216 1950 57 EP CP HIKI 1950-08-21 12:00:00 TS 27.4000 -178.000 25 hurdat_epa main 1931 O________O____ hurdat_epa CP011950 27.4000 -178.000 TD 25 -1 27.4000 -178.000 TC 25 12 306

About IBTrACS Database

This database is a web-friendly format of International Best Track Archive for Climate Stewardship (IBTrACS), a global best track data archive curated by NOAA dating back to 1842.

Updated: 2021-12-01